Terminal Aerodrome Forecast
Issued by NWS

Home | Current Version | Previous Version | Text Only | Print | Product List | Glossary On
Versions: 1 2 3 4 5 6 7 8 9 10 11 12 13 14
000
FTUS41 KAKQ 270522
TAFPHF
TAF
KPHF 270522Z 2706/2806 VRB03KT P6SM VCTS BKN100CB
     FM271000 00000KT P6SM BKN100
     FM271600 VRB03KT P6SM VCSH BKN100
     FM280100 12004KT P6SM BKN090=

USA.gov is the U.S. government's official web portal to all federal, state and local government web resources and services.